sensor_id;sensor_type;location;lat;lon;timestamp;P1;durP1;ratioP1;P2;durP2;ratioP2
81298;SDS011;70766;53.170;18.160;2023-06-22T00:01:50;14.00;;;10.10;;
81298;SDS011;70766;53.170;18.160;2023-06-22T00:04:18;12.20;;;9.80;;
81298;SDS011;70766;53.170;18.160;2023-06-22T00:06:46;15.00;;;11.00;;
81298;SDS011;70766;53.170;18.160;2023-06-22T00:09:14;12.20;;;9.10;;
81298;SDS011;70766;53.170;18.160;2023-06-22T00:11:42;13.10;;;9.10;;
81298;SDS011;70766;53.170;18.160;2023-06-22T00:14:11;13.20;;;9.90;;
81298;SDS011;70766;53.170;18.160;2023-06-22T00:16:39;12.60;;;9.90;;
81298;SDS011;70766;53.170;18.160;2023-06-22T00:19:07;12.60;;;10.10;;
81298;SDS011;70766;53.170;18.160;2023-06-22T00:21:35;13.30;;;10.30;;
81298;SDS011;70766;53.170;18.160;2023-06-22T00:24:03;16.40;;;10.90;;
81298;SDS011;70766;53.170;18.160;2023-06-22T00:26:31;14.10;;;11.10;;
81298;SDS011;70766;53.170;18.160;2023-06-22T00:29:00;14.20;;;10.50;;
81298;SDS011;70766;53.170;18.160;2023-06-22T00:31:30;15.40;;;10.70;;
81298;SDS011;70766;53.170;18.160;2023-06-22T00:33:58;15.40;;;10.30;;
81298;SDS011;70766;53.170;18.160;2023-06-22T00:36:26;12.20;;;9.90;;
81298;SDS011;70766;53.170;18.160;2023-06-22T00:38:54;15.10;;;11.20;;
81298;SDS011;70766;53.170;18.160;2023-06-22T00:41:22;14.10;;;10.80;;
81298;SDS011;70766;53.170;18.160;2023-06-22T00:43:50;14.50;;;11.60;;
81298;SDS011;70766;53.170;18.160;2023-06-22T00:46:18;15.50;;;11.40;;
81298;SDS011;70766;53.170;18.160;2023-06-22T00:48:47;14.50;;;11.00;;
81298;SDS011;70766;53.170;18.160;2023-06-22T00:51:15;16.70;;;11.10;;
81298;SDS011;70766;53.170;18.160;2023-06-22T00:53:43;15.10;;;11.50;;
81298;SDS011;70766;53.170;18.160;2023-06-22T00:56:11;13.00;;;10.60;;
81298;SDS011;70766;53.170;18.160;2023-06-22T00:58:40;13.50;;;10.00;;
81298;SDS011;70766;53.170;18.160;2023-06-22T01:01:09;13.40;;;10.60;;
81298;SDS011;70766;53.170;18.160;2023-06-22T01:03:37;13.30;;;10.50;;
81298;SDS011;70766;53.170;18.160;2023-06-22T01:06:07;14.60;;;10.80;;
81298;SDS011;70766;53.170;18.160;2023-06-22T01:11:35;15.00;;;10.30;;
81298;SDS011;70766;53.170;18.160;2023-06-22T01:14:09;15.10;;;11.20;;
81298;SDS011;70766;53.170;18.160;2023-06-22T01:16:43;14.20;;;10.60;;
81298;SDS011;70766;53.170;18.160;2023-06-22T01:21:53;16.30;;;10.90;;
81298;SDS011;70766;53.170;18.160;2023-06-22T01:24:26;13.70;;;10.50;;
81298;SDS011;70766;53.170;18.160;2023-06-22T01:29:52;11.90;;;8.40;;
81298;SDS011;70766;53.170;18.160;2023-06-22T01:32:32;13.10;;;8.60;;
81298;SDS011;70766;53.170;18.160;2023-06-22T01:35:03;13.00;;;8.60;;
81298;SDS011;70766;53.170;18.160;2023-06-22T01:37:34;12.00;;;7.60;;
81298;SDS011;70766;53.170;18.160;2023-06-22T01:40:07;13.00;;;8.10;;
81298;SDS011;70766;53.170;18.160;2023-06-22T01:42:37;12.60;;;8.30;;
81298;SDS011;70766;53.170;18.160;2023-06-22T01:45:07;10.10;;;7.50;;
81298;SDS011;70766;53.170;18.160;2023-06-22T01:47:38;10.10;;;7.20;;
81298;SDS011;70766;53.170;18.160;2023-06-22T01:50:07;13.60;;;7.60;;
81298;SDS011;70766;53.170;18.160;2023-06-22T01:52:36;11.90;;;6.40;;
81298;SDS011;70766;53.170;18.160;2023-06-22T01:55:05;8.70;;;4.90;;
81298;SDS011;70766;53.170;18.160;2023-06-22T01:57:35;8.60;;;6.00;;
81298;SDS011;70766;53.170;18.160;2023-06-22T02:00:18;10.60;;;6.80;;
81298;SDS011;70766;53.170;18.160;2023-06-22T02:02:55;12.80;;;8.00;;
81298;SDS011;70766;53.170;18.160;2023-06-22T02:05:28;11.20;;;7.60;;
81298;SDS011;70766;53.170;18.160;2023-06-22T02:08:09;10.10;;;7.40;;
81298;SDS011;70766;53.170;18.160;2023-06-22T02:10:44;11.60;;;7.70;;
81298;SDS011;70766;53.170;18.160;2023-06-22T02:13:14;10.80;;;8.00;;
81298;SDS011;70766;53.170;18.160;2023-06-22T02:15:44;12.40;;;7.80;;
81298;SDS011;70766;53.170;18.160;2023-06-22T02:18:14;11.90;;;8.20;;
81298;SDS011;70766;53.170;18.160;2023-06-22T02:20:42;11.80;;;8.50;;
81298;SDS011;70766;53.170;18.160;2023-06-22T02:23:10;10.50;;;8.60;;
81298;SDS011;70766;53.170;18.160;2023-06-22T02:25:39;10.70;;;8.20;;
81298;SDS011;70766;53.170;18.160;2023-06-22T02:28:07;11.30;;;7.20;;
81298;SDS011;70766;53.170;18.160;2023-06-22T02:30:35;11.90;;;7.40;;
81298;SDS011;70766;53.170;18.160;2023-06-22T02:33:03;9.20;;;5.40;;
81298;SDS011;70766;53.170;18.160;2023-06-22T02:35:31;7.50;;;5.10;;
81298;SDS011;70766;53.170;18.160;2023-06-22T02:38:00;12.00;;;6.80;;
81298;SDS011;70766;53.170;18.160;2023-06-22T02:40:29;9.00;;;5.80;;
81298;SDS011;70766;53.170;18.160;2023-06-22T02:42:58;10.40;;;6.40;;
81298;SDS011;70766;53.170;18.160;2023-06-22T02:45:30;10.10;;;6.60;;
81298;SDS011;70766;53.170;18.160;2023-06-22T02:47:58;11.80;;;7.30;;
81298;SDS011;70766;53.170;18.160;2023-06-22T02:50:27;9.40;;;6.80;;
81298;SDS011;70766;53.170;18.160;2023-06-22T02:52:56;10.90;;;7.10;;
81298;SDS011;70766;53.170;18.160;2023-06-22T02:55:24;10.90;;;6.70;;
81298;SDS011;70766;53.170;18.160;2023-06-22T02:57:56;11.20;;;7.70;;
81298;SDS011;70766;53.170;18.160;2023-06-22T03:00:25;11.40;;;7.20;;
81298;SDS011;70766;53.170;18.160;2023-06-22T03:02:59;14.70;;;7.70;;
81298;SDS011;70766;53.170;18.160;2023-06-22T03:05:27;8.40;;;6.70;;
81298;SDS011;70766;53.170;18.160;2023-06-22T03:07:56;11.80;;;7.50;;
81298;SDS011;70766;53.170;18.160;2023-06-22T03:10:24;12.70;;;7.20;;
81298;SDS011;70766;53.170;18.160;2023-06-22T03:12:52;14.60;;;8.00;;
81298;SDS011;70766;53.170;18.160;2023-06-22T03:15:20;14.30;;;7.60;;
81298;SDS011;70766;53.170;18.160;2023-06-22T03:17:51;9.50;;;6.90;;
81298;SDS011;70766;53.170;18.160;2023-06-22T03:20:19;11.10;;;7.30;;
81298;SDS011;70766;53.170;18.160;2023-06-22T03:22:47;9.50;;;6.20;;
81298;SDS011;70766;53.170;18.160;2023-06-22T03:25:16;10.80;;;6.40;;
81298;SDS011;70766;53.170;18.160;2023-06-22T03:27:46;10.90;;;6.30;;
81298;SDS011;70766;53.170;18.160;2023-06-22T03:30:16;10.50;;;6.20;;
81298;SDS011;70766;53.170;18.160;2023-06-22T03:32:46;9.30;;;5.70;;
81298;SDS011;70766;53.170;18.160;2023-06-22T03:35:15;8.10;;;4.80;;
81298;SDS011;70766;53.170;18.160;2023-06-22T03:37:43;9.30;;;5.70;;
81298;SDS011;70766;53.170;18.160;2023-06-22T03:40:11;9.70;;;5.10;;
81298;SDS011;70766;53.170;18.160;2023-06-22T03:42:40;8.70;;;5.30;;
81298;SDS011;70766;53.170;18.160;2023-06-22T03:45:09;7.30;;;4.90;;
81298;SDS011;70766;53.170;18.160;2023-06-22T03:47:38;7.70;;;5.20;;
81298;SDS011;70766;53.170;18.160;2023-06-22T03:50:06;8.80;;;4.60;;
81298;SDS011;70766;53.170;18.160;2023-06-22T03:52:34;12.30;;;5.80;;
81298;SDS011;70766;53.170;18.160;2023-06-22T03:55:02;8.90;;;4.90;;
81298;SDS011;70766;53.170;18.160;2023-06-22T03:57:31;9.30;;;5.50;;
81298;SDS011;70766;53.170;18.160;2023-06-22T03:59:59;9.10;;;5.30;;
81298;SDS011;70766;53.170;18.160;2023-06-22T04:02:27;10.20;;;5.70;;
81298;SDS011;70766;53.170;18.160;2023-06-22T04:04:55;9.80;;;5.60;;
81298;SDS011;70766;53.170;18.160;2023-06-22T04:07:24;9.20;;;6.10;;
81298;SDS011;70766;53.170;18.160;2023-06-22T04:09:52;9.60;;;5.50;;
81298;SDS011;70766;53.170;18.160;2023-06-22T04:12:20;7.60;;;5.00;;
81298;SDS011;70766;53.170;18.160;2023-06-22T04:14:48;9.90;;;5.40;;
81298;SDS011;70766;53.170;18.160;2023-06-22T04:17:16;10.80;;;5.10;;
81298;SDS011;70766;53.170;18.160;2023-06-22T04:19:47;11.00;;;5.00;;
81298;SDS011;70766;53.170;18.160;2023-06-22T04:22:15;10.70;;;5.30;;
81298;SDS011;70766;53.170;18.160;2023-06-22T04:24:43;9.60;;;5.20;;
81298;SDS011;70766;53.170;18.160;2023-06-22T04:27:12;7.00;;;4.50;;
81298;SDS011;70766;53.170;18.160;2023-06-22T04:29:40;7.20;;;5.00;;
81298;SDS011;70766;53.170;18.160;2023-06-22T04:32:16;7.50;;;4.80;;
81298;SDS011;70766;53.170;18.160;2023-06-22T04:34:45;5.40;;;3.80;;
81298;SDS011;70766;53.170;18.160;2023-06-22T04:37:13;5.80;;;3.50;;
81298;SDS011;70766;53.170;18.160;2023-06-22T04:39:43;5.40;;;3.40;;
81298;SDS011;70766;53.170;18.160;2023-06-22T04:42:12;6.30;;;4.20;;
81298;SDS011;70766;53.170;18.160;2023-06-22T04:44:40;5.60;;;4.50;;
81298;SDS011;70766;53.170;18.160;2023-06-22T04:47:09;6.40;;;4.20;;
81298;SDS011;70766;53.170;18.160;2023-06-22T04:49:37;6.80;;;3.90;;
81298;SDS011;70766;53.170;18.160;2023-06-22T04:52:09;6.80;;;3.50;;
81298;SDS011;70766;53.170;18.160;2023-06-22T04:54:39;5.50;;;4.10;;
81298;SDS011;70766;53.170;18.160;2023-06-22T04:57:16;7.10;;;3.70;;
81298;SDS011;70766;53.170;18.160;2023-06-22T04:59:44;6.30;;;4.30;;
81298;SDS011;70766;53.170;18.160;2023-06-22T05:02:12;7.80;;;4.10;;
81298;SDS011;70766;53.170;18.160;2023-06-22T05:04:40;6.10;;;3.50;;
81298;SDS011;70766;53.170;18.160;2023-06-22T05:07:09;6.40;;;4.30;;
81298;SDS011;70766;53.170;18.160;2023-06-22T05:09:37;7.60;;;4.00;;
81298;SDS011;70766;53.170;18.160;2023-06-22T05:12:05;6.90;;;3.70;;
81298;SDS011;70766;53.170;18.160;2023-06-22T05:14:38;5.90;;;3.80;;
81298;SDS011;70766;53.170;18.160;2023-06-22T05:17:06;8.70;;;4.60;;
81298;SDS011;70766;53.170;18.160;2023-06-22T05:19:42;5.50;;;4.10;;
81298;SDS011;70766;53.170;18.160;2023-06-22T05:22:13;6.10;;;3.80;;
81298;SDS011;70766;53.170;18.160;2023-06-22T05:24:46;5.90;;;4.30;;
81298;SDS011;70766;53.170;18.160;2023-06-22T05:27:14;7.80;;;4.20;;
81298;SDS011;70766;53.170;18.160;2023-06-22T05:29:43;8.10;;;4.60;;
81298;SDS011;70766;53.170;18.160;2023-06-22T05:32:11;7.20;;;4.30;;
81298;SDS011;70766;53.170;18.160;2023-06-22T05:34:39;7.70;;;4.40;;
81298;SDS011;70766;53.170;18.160;2023-06-22T05:37:07;6.60;;;4.10;;
81298;SDS011;70766;53.170;18.160;2023-06-22T05:39:37;6.70;;;3.70;;
81298;SDS011;70766;53.170;18.160;2023-06-22T05:42:05;6.70;;;4.50;;
81298;SDS011;70766;53.170;18.160;2023-06-22T05:44:37;4.80;;;3.70;;
81298;SDS011;70766;53.170;18.160;2023-06-22T05:47:07;5.00;;;3.20;;
81298;SDS011;70766;53.170;18.160;2023-06-22T05:49:35;6.20;;;3.60;;
81298;SDS011;70766;53.170;18.160;2023-06-22T05:52:03;6.30;;;4.10;;
81298;SDS011;70766;53.170;18.160;2023-06-22T05:54:31;5.00;;;3.90;;
81298;SDS011;70766;53.170;18.160;2023-06-22T05:56:59;8.70;;;4.00;;
81298;SDS011;70766;53.170;18.160;2023-06-22T05:59:28;6.80;;;4.40;;
81298;SDS011;70766;53.170;18.160;2023-06-22T06:01:56;5.00;;;3.20;;
81298;SDS011;70766;53.170;18.160;2023-06-22T06:04:24;7.10;;;4.10;;
81298;SDS011;70766;53.170;18.160;2023-06-22T06:06:55;5.80;;;3.70;;
81298;SDS011;70766;53.170;18.160;2023-06-22T06:09:24;5.20;;;3.70;;
81298;SDS011;70766;53.170;18.160;2023-06-22T06:11:52;7.30;;;4.20;;
81298;SDS011;70766;53.170;18.160;2023-06-22T06:14:20;5.50;;;3.30;;
81298;SDS011;70766;53.170;18.160;2023-06-22T06:16:48;6.30;;;3.70;;
81298;SDS011;70766;53.170;18.160;2023-06-22T06:19:17;6.50;;;3.80;;
81298;SDS011;70766;53.170;18.160;2023-06-22T06:21:45;5.40;;;3.30;;
81298;SDS011;70766;53.170;18.160;2023-06-22T06:24:14;4.80;;;3.50;;
81298;SDS011;70766;53.170;18.160;2023-06-22T06:26:42;4.60;;;3.00;;
81298;SDS011;70766;53.170;18.160;2023-06-22T06:29:10;6.40;;;3.40;;
81298;SDS011;70766;53.170;18.160;2023-06-22T06:31:38;7.60;;;3.10;;
81298;SDS011;70766;53.170;18.160;2023-06-22T06:34:06;7.00;;;4.10;;
81298;SDS011;70766;53.170;18.160;2023-06-22T06:36:35;7.90;;;3.90;;
81298;SDS011;70766;53.170;18.160;2023-06-22T06:39:03;6.10;;;3.40;;
81298;SDS011;70766;53.170;18.160;2023-06-22T06:41:31;5.70;;;3.60;;
81298;SDS011;70766;53.170;18.160;2023-06-22T06:44:01;5.80;;;3.20;;
81298;SDS011;70766;53.170;18.160;2023-06-22T06:46:29;4.40;;;2.70;;
81298;SDS011;70766;53.170;18.160;2023-06-22T06:48:57;5.00;;;3.20;;
81298;SDS011;70766;53.170;18.160;2023-06-22T06:51:25;4.10;;;2.70;;
81298;SDS011;70766;53.170;18.160;2023-06-22T06:53:53;5.50;;;3.50;;
81298;SDS011;70766;53.170;18.160;2023-06-22T06:56:21;4.30;;;2.70;;
81298;SDS011;70766;53.170;18.160;2023-06-22T06:58:50;3.80;;;2.50;;
81298;SDS011;70766;53.170;18.160;2023-06-22T07:01:19;3.70;;;2.10;;
81298;SDS011;70766;53.170;18.160;2023-06-22T07:03:49;4.70;;;2.90;;
81298;SDS011;70766;53.170;18.160;2023-06-22T07:06:17;5.00;;;2.60;;
81298;SDS011;70766;53.170;18.160;2023-06-22T07:08:45;4.40;;;2.50;;
81298;SDS011;70766;53.170;18.160;2023-06-22T07:11:14;5.40;;;2.70;;
81298;SDS011;70766;53.170;18.160;2023-06-22T07:13:42;4.00;;;2.40;;
81298;SDS011;70766;53.170;18.160;2023-06-22T07:16:10;5.50;;;3.30;;
81298;SDS011;70766;53.170;18.160;2023-06-22T07:18:39;5.30;;;3.40;;
81298;SDS011;70766;53.170;18.160;2023-06-22T07:21:07;8.00;;;2.90;;
81298;SDS011;70766;53.170;18.160;2023-06-22T07:23:35;4.80;;;2.80;;
81298;SDS011;70766;53.170;18.160;2023-06-22T07:26:04;3.90;;;2.40;;
81298;SDS011;70766;53.170;18.160;2023-06-22T07:28:34;3.90;;;2.90;;
81298;SDS011;70766;53.170;18.160;2023-06-22T07:31:05;7.10;;;2.90;;
81298;SDS011;70766;53.170;18.160;2023-06-22T07:33:34;5.10;;;2.60;;
81298;SDS011;70766;53.170;18.160;2023-06-22T07:36:02;7.30;;;2.90;;
81298;SDS011;70766;53.170;18.160;2023-06-22T07:38:35;4.80;;;2.90;;
81298;SDS011;70766;53.170;18.160;2023-06-22T07:41:03;3.50;;;2.50;;
81298;SDS011;70766;53.170;18.160;2023-06-22T07:43:33;5.10;;;3.20;;
81298;SDS011;70766;53.170;18.160;2023-06-22T07:46:04;4.90;;;3.20;;
81298;SDS011;70766;53.170;18.160;2023-06-22T07:48:33;3.60;;;2.50;;
81298;SDS011;70766;53.170;18.160;2023-06-22T07:51:05;5.00;;;2.90;;
81298;SDS011;70766;53.170;18.160;2023-06-22T07:53:34;5.10;;;2.70;;
81298;SDS011;70766;53.170;18.160;2023-06-22T07:56:03;4.70;;;2.90;;
81298;SDS011;70766;53.170;18.160;2023-06-22T07:58:35;4.40;;;2.70;;
81298;SDS011;70766;53.170;18.160;2023-06-22T08:01:03;3.60;;;2.20;;
81298;SDS011;70766;53.170;18.160;2023-06-22T08:03:32;4.20;;;2.60;;
81298;SDS011;70766;53.170;18.160;2023-06-22T08:06:00;4.90;;;3.00;;
81298;SDS011;70766;53.170;18.160;2023-06-22T08:08:29;4.40;;;3.10;;
81298;SDS011;70766;53.170;18.160;2023-06-22T08:10:57;4.70;;;2.80;;
81298;SDS011;70766;53.170;18.160;2023-06-22T08:13:25;6.60;;;3.50;;
81298;SDS011;70766;53.170;18.160;2023-06-22T08:15:53;5.50;;;3.60;;
81298;SDS011;70766;53.170;18.160;2023-06-22T08:18:22;4.80;;;2.80;;
81298;SDS011;70766;53.170;18.160;2023-06-22T08:20:50;5.20;;;2.80;;
81298;SDS011;70766;53.170;18.160;2023-06-22T08:23:18;4.70;;;2.80;;
81298;SDS011;70766;53.170;18.160;2023-06-22T08:25:46;5.80;;;2.80;;
81298;SDS011;70766;53.170;18.160;2023-06-22T08:28:15;3.90;;;2.70;;
81298;SDS011;70766;53.170;18.160;2023-06-22T08:30:44;5.00;;;2.90;;
81298;SDS011;70766;53.170;18.160;2023-06-22T08:33:12;3.70;;;2.80;;
81298;SDS011;70766;53.170;18.160;2023-06-22T08:35:54;6.40;;;3.60;;
81298;SDS011;70766;53.170;18.160;2023-06-22T08:38:23;6.30;;;2.80;;
81298;SDS011;70766;53.170;18.160;2023-06-22T08:40:52;4.00;;;2.80;;
81298;SDS011;70766;53.170;18.160;2023-06-22T08:43:20;5.10;;;2.80;;
81298;SDS011;70766;53.170;18.160;2023-06-22T08:45:48;4.00;;;2.80;;
81298;SDS011;70766;53.170;18.160;2023-06-22T08:48:16;4.50;;;3.00;;
81298;SDS011;70766;53.170;18.160;2023-06-22T08:50:45;8.10;;;2.70;;
81298;SDS011;70766;53.170;18.160;2023-06-22T08:53:13;2.80;;;2.00;;
81298;SDS011;70766;53.170;18.160;2023-06-22T08:55:41;4.00;;;2.10;;
81298;SDS011;70766;53.170;18.160;2023-06-22T08:58:09;4.40;;;2.40;;
81298;SDS011;70766;53.170;18.160;2023-06-22T09:00:37;4.20;;;2.60;;
81298;SDS011;70766;53.170;18.160;2023-06-22T09:03:06;4.10;;;2.80;;
81298;SDS011;70766;53.170;18.160;2023-06-22T09:05:34;4.20;;;3.00;;
81298;SDS011;70766;53.170;18.160;2023-06-22T09:08:02;5.10;;;2.80;;
81298;SDS011;70766;53.170;18.160;2023-06-22T09:10:31;4.60;;;2.60;;
81298;SDS011;70766;53.170;18.160;2023-06-22T09:13:00;5.10;;;3.10;;
81298;SDS011;70766;53.170;18.160;2023-06-22T09:15:28;3.10;;;2.10;;
81298;SDS011;70766;53.170;18.160;2023-06-22T09:17:57;5.20;;;2.20;;
81298;SDS011;70766;53.170;18.160;2023-06-22T09:20:26;6.20;;;2.60;;
81298;SDS011;70766;53.170;18.160;2023-06-22T09:22:55;4.20;;;2.60;;
81298;SDS011;70766;53.170;18.160;2023-06-22T09:25:23;4.60;;;2.80;;
81298;SDS011;70766;53.170;18.160;2023-06-22T09:27:51;3.60;;;1.90;;
81298;SDS011;70766;53.170;18.160;2023-06-22T09:30:19;3.40;;;2.00;;
81298;SDS011;70766;53.170;18.160;2023-06-22T09:32:47;4.10;;;3.00;;
81298;SDS011;70766;53.170;18.160;2023-06-22T09:35:16;3.80;;;2.50;;
81298;SDS011;70766;53.170;18.160;2023-06-22T09:37:44;5.00;;;2.40;;
81298;SDS011;70766;53.170;18.160;2023-06-22T09:40:12;6.40;;;3.10;;
81298;SDS011;70766;53.170;18.160;2023-06-22T09:42:43;5.50;;;2.80;;
81298;SDS011;70766;53.170;18.160;2023-06-22T09:45:11;3.40;;;2.30;;
81298;SDS011;70766;53.170;18.160;2023-06-22T09:47:39;3.30;;;2.30;;
81298;SDS011;70766;53.170;18.160;2023-06-22T09:50:08;4.30;;;3.00;;
81298;SDS011;70766;53.170;18.160;2023-06-22T09:52:37;5.10;;;3.10;;
81298;SDS011;70766;53.170;18.160;2023-06-22T09:55:08;6.20;;;2.80;;
81298;SDS011;70766;53.170;18.160;2023-06-22T09:57:36;4.70;;;2.50;;
81298;SDS011;70766;53.170;18.160;2023-06-22T10:00:07;4.50;;;2.70;;
81298;SDS011;70766;53.170;18.160;2023-06-22T10:02:41;3.70;;;2.60;;
81298;SDS011;70766;53.170;18.160;2023-06-22T10:05:10;5.00;;;2.30;;
81298;SDS011;70766;53.170;18.160;2023-06-22T10:07:39;4.80;;;2.10;;
81298;SDS011;70766;53.170;18.160;2023-06-22T10:10:11;3.00;;;2.20;;
81298;SDS011;70766;53.170;18.160;2023-06-22T10:12:41;3.70;;;2.30;;
81298;SDS011;70766;53.170;18.160;2023-06-22T10:15:16;4.10;;;3.20;;
81298;SDS011;70766;53.170;18.160;2023-06-22T10:17:45;2.50;;;1.80;;
81298;SDS011;70766;53.170;18.160;2023-06-22T10:20:13;4.90;;;2.10;;
81298;SDS011;70766;53.170;18.160;2023-06-22T10:22:43;3.50;;;1.90;;
81298;SDS011;70766;53.170;18.160;2023-06-22T10:25:12;4.10;;;2.60;;
81298;SDS011;70766;53.170;18.160;2023-06-22T10:27:41;3.60;;;2.80;;
81298;SDS011;70766;53.170;18.160;2023-06-22T10:30:09;5.90;;;2.40;;
81298;SDS011;70766;53.170;18.160;2023-06-22T10:32:42;3.40;;;2.20;;
81298;SDS011;70766;53.170;18.160;2023-06-22T10:35:11;4.50;;;2.60;;
81298;SDS011;70766;53.170;18.160;2023-06-22T10:37:45;5.30;;;3.50;;
81298;SDS011;70766;53.170;18.160;2023-06-22T10:40:14;4.40;;;2.50;;
81298;SDS011;70766;53.170;18.160;2023-06-22T10:42:43;3.90;;;2.80;;
81298;SDS011;70766;53.170;18.160;2023-06-22T10:45:12;4.40;;;2.80;;
81298;SDS011;70766;53.170;18.160;2023-06-22T10:47:41;5.40;;;2.80;;
81298;SDS011;70766;53.170;18.160;2023-06-22T10:50:12;4.70;;;2.40;;
81298;SDS011;70766;53.170;18.160;2023-06-22T10:52:40;2.70;;;2.10;;
81298;SDS011;70766;53.170;18.160;2023-06-22T10:55:10;4.40;;;2.30;;
81298;SDS011;70766;53.170;18.160;2023-06-22T10:57:38;3.60;;;2.30;;
81298;SDS011;70766;53.170;18.160;2023-06-22T11:00:11;6.30;;;2.70;;
81298;SDS011;70766;53.170;18.160;2023-06-22T11:02:41;4.80;;;2.80;;
81298;SDS011;70766;53.170;18.160;2023-06-22T11:05:10;3.70;;;2.30;;
81298;SDS011;70766;53.170;18.160;2023-06-22T11:07:41;3.00;;;2.50;;
81298;SDS011;70766;53.170;18.160;2023-06-22T11:10:16;3.10;;;2.10;;
81298;SDS011;70766;53.170;18.160;2023-06-22T11:12:45;5.10;;;2.60;;
81298;SDS011;70766;53.170;18.160;2023-06-22T11:15:13;4.80;;;2.70;;
81298;SDS011;70766;53.170;18.160;2023-06-22T11:17:41;7.20;;;3.10;;
81298;SDS011;70766;53.170;18.160;2023-06-22T11:20:09;4.30;;;2.50;;
81298;SDS011;70766;53.170;18.160;2023-06-22T11:22:39;4.00;;;2.70;;
81298;SDS011;70766;53.170;18.160;2023-06-22T11:25:08;4.70;;;2.50;;
81298;SDS011;70766;53.170;18.160;2023-06-22T11:27:36;3.20;;;2.10;;
81298;SDS011;70766;53.170;18.160;2023-06-22T11:30:05;4.10;;;2.30;;
81298;SDS011;70766;53.170;18.160;2023-06-22T11:32:34;4.70;;;2.50;;
81298;SDS011;70766;53.170;18.160;2023-06-22T11:35:02;2.60;;;1.90;;
81298;SDS011;70766;53.170;18.160;2023-06-22T11:37:31;4.20;;;2.30;;
81298;SDS011;70766;53.170;18.160;2023-06-22T11:39:59;3.50;;;3.10;;
81298;SDS011;70766;53.170;18.160;2023-06-22T11:42:34;4.20;;;2.60;;
81298;SDS011;70766;53.170;18.160;2023-06-22T11:45:04;4.20;;;2.20;;
81298;SDS011;70766;53.170;18.160;2023-06-22T11:47:34;3.90;;;2.70;;
81298;SDS011;70766;53.170;18.160;2023-06-22T11:50:02;3.90;;;2.40;;
81298;SDS011;70766;53.170;18.160;2023-06-22T11:52:31;3.50;;;2.50;;
81298;SDS011;70766;53.170;18.160;2023-06-22T11:54:59;4.30;;;3.20;;
81298;SDS011;70766;53.170;18.160;2023-06-22T11:57:27;4.40;;;2.60;;
81298;SDS011;70766;53.170;18.160;2023-06-22T11:59:56;4.30;;;2.00;;
81298;SDS011;70766;53.170;18.160;2023-06-22T12:02:24;3.10;;;2.00;;
81298;SDS011;70766;53.170;18.160;2023-06-22T12:04:52;4.80;;;2.10;;
81298;SDS011;70766;53.170;18.160;2023-06-22T12:07:23;4.70;;;2.10;;
81298;SDS011;70766;53.170;18.160;2023-06-22T12:09:52;4.00;;;2.40;;
81298;SDS011;70766;53.170;18.160;2023-06-22T12:12:20;2.70;;;2.20;;
81298;SDS011;70766;53.170;18.160;2023-06-22T12:14:48;3.70;;;2.50;;
81298;SDS011;70766;53.170;18.160;2023-06-22T12:17:16;4.20;;;2.10;;
81298;SDS011;70766;53.170;18.160;2023-06-22T12:19:44;5.10;;;2.50;;
81298;SDS011;70766;53.170;18.160;2023-06-22T12:22:12;4.60;;;2.50;;
81298;SDS011;70766;53.170;18.160;2023-06-22T12:24:40;3.20;;;2.40;;
81298;SDS011;70766;53.170;18.160;2023-06-22T12:27:08;5.70;;;2.40;;
81298;SDS011;70766;53.170;18.160;2023-06-22T12:29:37;4.80;;;2.50;;
81298;SDS011;70766;53.170;18.160;2023-06-22T12:32:06;3.60;;;2.60;;
81298;SDS011;70766;53.170;18.160;2023-06-22T12:34:34;3.80;;;2.40;;
81298;SDS011;70766;53.170;18.160;2023-06-22T12:37:02;5.90;;;2.30;;
81298;SDS011;70766;53.170;18.160;2023-06-22T12:39:32;3.00;;;2.00;;
81298;SDS011;70766;53.170;18.160;2023-06-22T12:42:00;2.60;;;1.90;;
81298;SDS011;70766;53.170;18.160;2023-06-22T12:44:28;5.10;;;2.30;;
81298;SDS011;70766;53.170;18.160;2023-06-22T12:46:56;5.90;;;2.20;;
81298;SDS011;70766;53.170;18.160;2023-06-22T12:49:24;3.20;;;2.20;;
81298;SDS011;70766;53.170;18.160;2023-06-22T12:51:53;3.60;;;2.30;;
81298;SDS011;70766;53.170;18.160;2023-06-22T12:54:21;3.30;;;2.20;;
81298;SDS011;70766;53.170;18.160;2023-06-22T12:56:52;3.80;;;2.30;;
81298;SDS011;70766;53.170;18.160;2023-06-22T12:59:22;4.30;;;2.50;;
81298;SDS011;70766;53.170;18.160;2023-06-22T13:01:50;4.40;;;2.30;;
81298;SDS011;70766;53.170;18.160;2023-06-22T13:04:19;3.40;;;2.10;;
81298;SDS011;70766;53.170;18.160;2023-06-22T13:06:49;4.40;;;2.70;;
81298;SDS011;70766;53.170;18.160;2023-06-22T13:09:19;3.90;;;2.80;;
81298;SDS011;70766;53.170;18.160;2023-06-22T13:11:48;3.40;;;2.20;;
81298;SDS011;70766;53.170;18.160;2023-06-22T13:14:16;4.40;;;2.30;;
81298;SDS011;70766;53.170;18.160;2023-06-22T13:16:45;2.90;;;1.90;;
81298;SDS011;70766;53.170;18.160;2023-06-22T13:19:13;3.30;;;2.20;;
81298;SDS011;70766;53.170;18.160;2023-06-22T13:21:41;2.70;;;2.00;;
81298;SDS011;70766;53.170;18.160;2023-06-22T13:24:09;4.30;;;2.10;;
81298;SDS011;70766;53.170;18.160;2023-06-22T13:26:37;2.50;;;1.80;;
81298;SDS011;70766;53.170;18.160;2023-06-22T13:29:05;2.70;;;2.00;;
81298;SDS011;70766;53.170;18.160;2023-06-22T13:31:33;3.80;;;2.40;;
81298;SDS011;70766;53.170;18.160;2023-06-22T13:34:01;4.40;;;2.40;;
81298;SDS011;70766;53.170;18.160;2023-06-22T13:36:29;3.00;;;2.40;;
81298;SDS011;70766;53.170;18.160;2023-06-22T13:38:58;5.50;;;2.00;;
81298;SDS011;70766;53.170;18.160;2023-06-22T13:41:26;4.90;;;2.10;;
81298;SDS011;70766;53.170;18.160;2023-06-22T13:43:55;2.40;;;1.90;;
81298;SDS011;70766;53.170;18.160;2023-06-22T13:46:23;4.60;;;2.30;;
81298;SDS011;70766;53.170;18.160;2023-06-22T13:48:51;3.30;;;2.20;;
81298;SDS011;70766;53.170;18.160;2023-06-22T13:51:23;4.20;;;2.40;;
81298;SDS011;70766;53.170;18.160;2023-06-22T13:53:52;2.70;;;1.80;;
81298;SDS011;70766;53.170;18.160;2023-06-22T13:56:20;3.80;;;2.40;;
81298;SDS011;70766;53.170;18.160;2023-06-22T13:58:49;5.70;;;2.40;;
81298;SDS011;70766;53.170;18.160;2023-06-22T14:01:17;5.80;;;2.60;;
81298;SDS011;70766;53.170;18.160;2023-06-22T14:03:46;4.00;;;2.40;;
81298;SDS011;70766;53.170;18.160;2023-06-22T14:06:15;4.50;;;2.40;;
81298;SDS011;70766;53.170;18.160;2023-06-22T14:08:44;3.70;;;2.40;;
81298;SDS011;70766;53.170;18.160;2023-06-22T14:11:12;4.40;;;2.60;;
81298;SDS011;70766;53.170;18.160;2023-06-22T14:13:44;2.80;;;2.00;;
81298;SDS011;70766;53.170;18.160;2023-06-22T14:16:12;4.40;;;2.50;;
81298;SDS011;70766;53.170;18.160;2023-06-22T14:18:40;2.60;;;2.20;;
81298;SDS011;70766;53.170;18.160;2023-06-22T14:21:08;3.80;;;2.20;;
81298;SDS011;70766;53.170;18.160;2023-06-22T14:23:37;3.90;;;2.70;;
81298;SDS011;70766;53.170;18.160;2023-06-22T14:26:05;3.00;;;2.10;;
81298;SDS011;70766;53.170;18.160;2023-06-22T14:28:34;4.80;;;2.40;;
81298;SDS011;70766;53.170;18.160;2023-06-22T14:31:02;4.00;;;2.30;;
81298;SDS011;70766;53.170;18.160;2023-06-22T14:33:30;6.80;;;3.00;;
81298;SDS011;70766;53.170;18.160;2023-06-22T14:35:58;5.50;;;2.30;;
81298;SDS011;70766;53.170;18.160;2023-06-22T14:38:26;4.20;;;2.30;;
81298;SDS011;70766;53.170;18.160;2023-06-22T14:40:55;3.40;;;2.30;;
81298;SDS011;70766;53.170;18.160;2023-06-22T14:43:44;3.60;;;2.10;;
81298;SDS011;70766;53.170;18.160;2023-06-22T14:46:15;4.60;;;2.90;;
81298;SDS011;70766;53.170;18.160;2023-06-22T14:48:44;5.40;;;2.80;;
81298;SDS011;70766;53.170;18.160;2023-06-22T14:51:12;3.30;;;2.60;;